Time;durP1;ratioP1;P1;durP2;ratioP2;P2;SDS_P1;SDS_P2;PMS_P1;PMS_P2;Temp;Humidity;BMP_temperature;BMP_pressure;BME280_temperature;BME280_humidity;BME280_pressure;Samples;Min_cycle;Max_cycle;Signal;HPM_P1;HPM_P2
2023/04/13 00:02:23;;;;;;;14.77;2.30;;;;;;;4.93;88.08;98915.75;5049776;28;20060;-45
2023/04/13 00:04:50;;;;;;;7.97;2.00;;;;;;;4.91;88.34;98920.81;5057294;28;20043;-44
2023/04/13 00:07:18;;;;;;;8.07;2.88;;;;;;;4.88;88.18;98927.00;5050078;28;20380;-49
2023/04/13 00:09:46;;;;;;;13.20;2.10;;;;;;;4.86;88.48;98934.78;5050344;28;20135;-44
2023/04/13 00:12:14;;;;;;;11.13;2.22;;;;;;;4.84;88.03;98934.34;5031767;28;20049;-44
2023/04/13 00:14:42;;;;;;;13.88;2.75;;;;;;;4.81;88.37;98935.03;5053446;28;20054;-44
2023/04/13 00:17:09;;;;;;;8.65;2.08;;;;;;;4.79;88.23;98934.59;5057231;28;20053;-51
2023/04/13 00:19:36;;;;;;;13.77;2.38;;;;;;;4.76;88.45;98935.28;5063588;28;20047;-45
2023/04/13 00:22:08;;;;;;;12.00;2.17;;;;;;;4.73;88.54;98941.47;5049345;28;20053;-48
2023/04/13 00:24:35;;;;;;;10.75;2.50;;;;;;;4.70;88.15;98936.69;5043903;28;20068;-44
2023/04/13 00:27:03;;;;;;;15.52;2.60;;;;;;;4.67;88.57;98946.41;5039239;28;20050;-44
2023/04/13 00:29:31;;;;;;;12.60;2.22;;;;;;;4.65;88.32;98940.50;5045335;28;20051;-44
2023/04/13 00:31:58;;;;;;;8.27;2.35;;;;;;;4.64;88.43;98955.31;5055285;28;20049;-45
2023/04/13 00:34:24;;;;;;;14.43;2.53;;;;;;;4.63;88.67;98945.50;5059758;28;20091;-46
2023/04/13 00:36:52;;;;;;;17.67;3.58;;;;;;;4.63;88.70;98958.44;5043972;28;20052;-44
2023/04/13 00:39:22;;;;;;;12.05;2.72;;;;;;;4.62;88.73;98965.03;5063663;28;20047;-44
2023/04/13 00:41:52;;;;;;;11.23;2.95;;;;;;;4.61;88.58;98966.19;5068982;28;20143;-44
2023/04/13 00:44:20;;;;;;;8.43;1.92;;;;;;;4.61;88.63;98977.16;5064393;28;20106;-44
2023/04/13 00:46:49;;;;;;;12.75;2.78;;;;;;;4.59;88.33;98968.47;5034960;28;20060;-44
2023/04/13 00:49:17;;;;;;;18.48;3.25;;;;;;;4.56;88.86;98975.47;5059353;28;20063;-45
2023/04/13 00:51:44;;;;;;;10.57;4.60;;;;;;;4.55;88.52;98973.06;5045752;28;20044;-44
2023/04/13 00:54:15;;;;;;;10.77;2.47;;;;;;;4.53;88.89;98978.09;5049095;28;20041;-44
2023/04/13 00:56:43;;;;;;;10.85;2.97;;;;;;;4.51;88.62;98977.66;5048743;28;20131;-44
2023/04/13 00:59:21;;;;;;;15.82;3.35;;;;;;;4.50;88.90;98970.59;5054190;28;20127;-47
2023/04/13 01:01:55;;;;;;;14.45;3.08;;;;;;;4.48;88.83;98973.66;5032415;28;20489;-44
2023/04/13 01:04:26;;;;;;;9.45;3.40;;;;;;;4.47;89.05;98968.53;5046979;28;20048;-51
2023/04/13 01:07:18;;;;;;;15.43;2.58;;;;;;;4.46;88.57;98973.22;5057128;28;20094;-44
2023/04/13 01:09:51;;;;;;;15.80;2.50;;;;;;;4.43;88.96;98975.84;5063428;28;20132;-47
2023/04/13 01:12:23;;;;;;;;;;;;;;;4.41;88.91;98962.50;5048654;28;20041;-44
2023/04/13 01:15:17;;;;;;;7.20;2.40;;;;;;;4.40;88.84;98982.00;5062169;28;19925;-44
2023/04/13 01:17:53;;;;;;;11.95;2.38;;;;;;;4.38;88.78;98978.84;5047326;28;20490;-46
2023/04/13 01:20:21;;;;;;;11.07;2.67;;;;;;;4.38;88.77;98985.13;5048244;28;20131;-44
2023/04/13 01:22:55;;;;;;;10.48;3.08;;;;;;;4.36;89.09;98990.16;5053501;28;20094;-44
2023/04/13 01:25:39;;;;;;;17.65;2.53;;;;;;;4.37;88.89;98982.72;5053830;28;20049;-44
2023/04/13 01:28:08;;;;;;;18.65;3.17;;;;;;;4.39;88.73;98991.41;5047420;28;20041;-45
2023/04/13 01:30:37;;;;;;;14.82;2.38;;;;;;;4.39;88.70;98994.94;5051482;28;20044;-50
2023/04/13 01:33:05;;;;;;;16.67;2.55;;;;;;;4.40;88.63;99003.94;5048772;28;20041;-49
2023/04/13 01:35:33;;;;;;;7.40;2.28;;;;;;;4.40;88.94;98992.97;5048804;28;20509;-44
2023/04/13 01:38:00;;;;;;;8.82;2.15;;;;;;;4.39;88.66;99000.41;5047850;28;20044;-43
2023/04/13 01:40:29;;;;;;;15.00;2.53;;;;;;;4.39;88.45;98996.88;5030087;28;20040;-44
2023/04/13 01:42:56;;;;;;;10.40;2.42;;;;;;;4.39;88.52;99005.09;5047073;28;20506;-44
2023/04/13 01:45:35;;;;;;;11.95;2.17;;;;;;;4.38;88.79;99017.19;5057184;28;20514;-44
2023/04/13 01:48:30;;;;;;;8.57;1.52;;;;;;;4.37;88.64;99004.66;5052138;28;20532;-44
2023/04/13 01:51:04;;;;;;;18.05;2.65;;;;;;;4.35;88.38;99001.44;5046418;28;20458;-44
2023/04/13 01:53:37;;;;;;;13.77;2.08;;;;;;;4.35;88.61;99006.91;5029332;28;20053;-45
2023/04/13 01:56:05;;;;;;;8.23;2.65;;;;;;;4.34;88.36;99011.63;5045543;28;20041;-44
2023/04/13 01:58:34;;;;;;;13.15;2.28;;;;;;;4.34;88.51;99008.06;5054065;28;20605;-44
2023/04/13 02:01:06;;;;;;;8.00;2.15;;;;;;;4.32;88.22;99027.59;5045486;28;20107;-44
2023/04/13 02:03:37;;;;;;;7.53;2.13;;;;;;;4.31;88.32;98995.88;5042537;28;20037;-44
2023/04/13 02:06:06;;;;;;;12.23;2.35;;;;;;;4.30;88.50;99014.25;5059825;28;20049;-44
2023/04/13 02:08:35;;;;;;;8.82;2.28;;;;;;;4.29;88.15;99017.31;5041695;28;20086;-44
2023/04/13 02:11:03;;;;;;;17.50;2.47;;;;;;;4.29;88.22;99037.28;5045730;28;20798;-44
2023/04/13 02:13:30;;;;;;;10.82;1.90;;;;;;;4.27;88.30;99012.19;5046447;28;20041;-45
2023/04/13 02:15:57;;;;;;;11.38;2.35;;;;;;;4.27;88.14;99023.16;5045806;28;20045;-45
2023/04/13 02:18:25;;;;;;;8.88;2.80;;;;;;;4.25;88.36;99027.38;5056513;28;20468;-44
2023/04/13 02:21:02;;;;;;;8.98;2.30;;;;;;;4.22;88.04;99020.66;5050634;28;20437;-44
2023/04/13 02:23:30;;;;;;;10.95;2.58;;;;;;;4.20;87.81;99031.16;5049219;28;20384;-44
2023/04/13 02:25:57;;;;;;;8.02;2.25;;;;;;;4.21;88.13;99034.66;5048691;28;20045;-46
2023/04/13 02:28:28;;;;;;;11.02;1.90;;;;;;;4.19;87.99;99037.75;5047138;28;20404;-45
2023/04/13 02:30:58;;;;;;;11.98;3.15;;;;;;;4.17;87.51;99020.88;5045515;28;20080;-44
2023/04/13 02:33:31;;;;;;;8.13;3.78;;;;;;;4.14;87.66;99029.78;5055690;28;20064;-44
2023/04/13 02:36:01;;;;;;;8.15;2.38;;;;;;;4.12;87.58;99023.88;5037580;28;20037;-44
2023/04/13 02:38:30;;;;;;;6.50;2.05;;;;;;;4.09;87.44;99016.34;5049972;28;20059;-44
2023/04/13 02:40:59;;;;;;;6.45;1.58;;;;;;;4.07;87.42;99029.56;5051261;28;20037;-44
2023/04/13 02:43:27;;;;;;;5.13;1.90;;;;;;;4.04;87.63;99030.25;5054353;28;20059;-44
2023/04/13 02:45:55;;;;;;;9.30;3.20;;;;;;;4.05;87.67;99034.56;5056745;28;20099;-44
2023/04/13 02:48:25;;;;;;;8.80;2.83;;;;;;;4.04;87.65;99029.47;5051034;28;20045;-44
2023/04/13 02:50:53;;;;;;;12.93;1.65;;;;;;;4.02;87.33;99048.97;5061706;28;20048;-46
2023/04/13 02:53:21;;;;;;;7.97;2.85;;;;;;;4.01;87.25;99028.22;5057350;28;20123;-44
2023/04/13 02:55:52;;;;;;;5.85;1.30;;;;;;;3.99;87.25;99049.66;5063988;28;20052;-44
2023/04/13 02:58:22;;;;;;;3.25;1.45;;;;;;;3.97;87.09;99030.00;5060468;28;20477;-44
2023/04/13 03:00:49;;;;;;;9.20;1.65;;;;;;;3.95;87.28;99026.84;5094845;22;20057;-44
2023/04/13 03:03:17;;;;;;;7.30;2.35;;;;;;;3.95;87.09;99046.00;5032453;28;20045;-43
2023/04/13 03:05:46;;;;;;;7.72;1.80;;;;;;;3.93;87.27;99045.53;5031202;28;20057;-44
2023/04/13 03:08:13;;;;;;;14.05;1.67;;;;;;;3.91;87.28;99045.09;5013591;28;20033;-45
2023/04/13 03:10:40;;;;;;;6.93;1.58;;;;;;;3.89;87.42;99050.09;5031389;28;20410;-44
2023/04/13 03:13:07;;;;;;;9.65;2.03;;;;;;;3.88;87.38;99051.25;5029078;28;20057;-47
2023/04/13 03:15:37;;;;;;;5.05;1.38;;;;;;;3.86;87.35;99058.22;5033756;28;20041;-49
2023/04/13 03:18:04;;;;;;;9.23;1.20;;;;;;;3.84;87.19;99055.78;5027122;28;20045;-44
2023/04/13 03:20:31;;;;;;;7.78;1.85;;;;;;;3.82;87.53;99069.03;5026743;28;20380;-44
2023/04/13 03:23:00;;;;;;;5.88;1.38;;;;;;;3.82;87.10;99063.56;5009841;28;20135;-45
2023/04/13 03:25:27;;;;;;;5.20;1.08;;;;;;;3.81;87.41;99048.28;5025526;28;20116;-43
2023/04/13 03:27:55;;;;;;;7.28;1.25;;;;;;;3.82;87.04;99066.28;5025893;28;20137;-43
2023/04/13 03:30:22;;;;;;;6.10;1.80;;;;;;;3.80;87.38;99052.16;5028389;28;20042;-45
2023/04/13 03:32:51;;;;;;;3.65;1.30;;;;;;;3.78;86.93;99062.66;5030333;28;20084;-44
2023/04/13 03:35:19;;;;;;;9.52;1.70;;;;;;;3.79;86.92;99074.38;5027505;28;20045;-44
2023/04/13 03:37:47;;;;;;;9.55;1.90;;;;;;;3.77;87.21;99091.16;5031816;28;20391;-51
2023/04/13 03:40:14;;;;;;;6.30;1.20;;;;;;;3.76;86.97;99083.31;5031827;28;20053;-45
2023/04/13 03:42:42;;;;;;;7.30;1.48;;;;;;;3.75;87.03;99092.63;5026231;28;20045;-46
2023/04/13 03:45:10;;;;;;;6.78;1.52;;;;;;;3.74;87.03;99085.56;5029401;28;21108;-44
2023/04/13 03:47:39;;;;;;;7.22;2.08;;;;;;;3.71;86.77;99103.47;5028186;28;20056;-45
2023/04/13 03:50:07;;;;;;;5.10;1.08;;;;;;;3.68;87.16;99083.03;5022963;28;20037;-44
2023/04/13 03:52:35;;;;;;;6.85;1.52;;;;;;;3.68;87.02;99084.97;5029579;28;20084;-44
2023/04/13 03:55:02;;;;;;;8.20;1.45;;;;;;;3.67;86.98;99097.06;5028157;28;20486;-45
2023/04/13 03:57:29;;;;;;;5.30;1.17;;;;;;;3.63;87.06;99079.72;5020482;28;20052;-44
2023/04/13 03:59:56;;;;;;;7.32;3.00;;;;;;;3.62;87.17;99086.34;5025772;28;20458;-44
2023/04/13 04:02:24;;;;;;;4.65;1.25;;;;;;;3.59;87.36;99078.81;5036609;28;20048;-47
2023/04/13 04:04:51;;;;;;;3.20;1.30;;;;;;;3.58;87.38;99088.97;5032130;28;20492;-44
2023/04/13 04:07:21;;;;;;;9.35;1.40;;;;;;;3.56;87.28;99079.50;5031375;28;20106;-45
2023/04/13 04:09:49;;;;;;;4.88;1.30;;;;;;;3.54;87.09;99081.78;5033298;28;20048;-44
2023/04/13 04:12:17;;;;;;;8.30;1.48;;;;;;;3.53;87.42;99083.72;5035717;28;20124;-43
2023/04/13 04:14:44;;;;;;;3.38;1.25;;;;;;;3.52;87.40;99078.59;5035792;28;20061;-46
2023/04/13 04:17:11;;;;;;;5.40;1.30;;;;;;;3.53;87.01;99091.13;5023123;28;20053;-44
2023/04/13 04:19:38;;;;;;;4.95;1.00;;;;;;;3.53;87.00;99085.63;5033990;28;20047;-44
2023/04/13 04:22:06;;;;;;;4.25;1.15;;;;;;;3.52;87.47;99097.75;5042678;28;20381;-44
2023/04/13 04:24:36;;;;;;;4.05;1.40;;;;;;;3.51;86.94;99098.88;5018597;28;20373;-45
2023/04/13 04:27:04;;;;;;;4.05;1.15;;;;;;;3.47;87.38;99101.47;5031820;28;20487;-44
2023/04/13 04:29:34;;;;;;;13.90;2.38;;;;;;;3.46;87.15;99094.41;5030588;28;20103;-45
2023/04/13 04:32:03;;;;;;;13.60;2.63;;;;;;;3.44;87.03;99104.09;5039637;28;20099;-44
2023/04/13 04:34:30;;;;;;;6.40;1.20;;;;;;;3.42;87.22;99100.88;5032179;28;20407;-44
2023/04/13 04:36:57;;;;;;;7.35;2.08;;;;;;;3.42;86.98;99111.81;5024019;28;20056;-44
2023/04/13 04:39:31;;;;;;;5.68;1.33;;;;;;;3.41;87.26;99110.25;5029999;28;20080;-44
2023/04/13 04:42:04;;;;;;;5.25;1.08;;;;;;;3.39;87.24;99113.31;5030050;28;20038;-45
2023/04/13 04:44:36;;;;;;;6.43;2.42;;;;;;;3.39;87.01;99120.72;5024627;28;20529;-45
2023/04/13 04:47:03;;;;;;;4.25;1.08;;;;;;;3.38;87.26;99121.84;5036110;28;20045;-48
2023/04/13 04:49:30;;;;;;;6.47;1.08;;;;;;;3.36;87.32;99107.72;5033569;28;20046;-43
2023/04/13 04:51:57;;;;;;;3.15;0.82;;;;;;;3.35;87.21;99123.34;5027707;28;20033;-44
2023/04/13 04:54:24;;;;;;;5.57;1.05;;;;;;;3.34;87.31;99131.84;5022753;28;20050;-44
2023/04/13 04:56:56;;;;;;;4.93;1.58;;;;;;;3.31;87.23;99116.16;5034624;28;20057;-44
2023/04/13 04:59:25;;;;;;;3.80;1.83;;;;;;;3.30;87.28;99118.06;5025380;28;20061;-44
2023/04/13 05:01:52;;;;;;;5.75;1.05;;;;;;;3.28;87.46;99123.09;5028778;28;20057;-45
2023/04/13 05:04:20;;;;;;;2.25;0.85;;;;;;;3.27;87.36;99116.00;5029305;28;20438;-44
2023/04/13 05:06:47;;;;;;;6.82;1.90;;;;;;;3.26;87.34;99119.06;5011216;28;20770;-44
2023/04/13 05:09:14;;;;;;;15.65;1.48;;;;;;;3.24;87.33;99118.59;5011329;28;20049;-45
2023/04/13 05:11:41;;;;;;;3.67;1.23;;;;;;;3.21;87.23;99122.81;5028561;28;20487;-47
2023/04/13 05:14:10;;;;;;;6.03;1.23;;;;;;;3.19;87.63;99121.56;5012793;28;20045;-44
2023/04/13 05:16:37;;;;;;;4.70;1.27;;;;;;;3.18;87.78;99128.94;5029367;28;20103;-45
2023/04/13 05:19:07;;;;;;;7.55;1.40;;;;;;;3.19;87.75;99129.75;5011075;28;20103;-45
2023/04/13 05:21:35;;;;;;;6.00;1.00;;;;;;;3.18;87.52;99126.22;5026004;28;20038;-47
2023/04/13 05:24:05;;;;;;;7.43;2.05;;;;;;;3.18;87.38;99142.63;5027390;28;20383;-43
2023/04/13 05:26:34;;;;;;;4.50;1.33;;;;;;;3.17;87.87;99135.56;5024967;28;20053;-44
2023/04/13 05:29:03;;;;;;;4.82;1.42;;;;;;;3.15;87.63;99135.09;5009901;28;20034;-44
2023/04/13 05:31:30;;;;;;;4.15;0.98;;;;;;;3.15;87.84;99137.03;5022974;28;20057;-44
2023/04/13 05:33:57;;;;;;;8.95;1.60;;;;;;;3.15;87.69;99137.03;5028026;28;20038;-44
2023/04/13 05:36:25;;;;;;;5.22;1.00;;;;;;;3.14;87.69;99136.25;5024893;28;20132;-44
2023/04/13 05:38:52;;;;;;;4.38;1.25;;;;;;;3.14;87.57;99133.50;5026702;28;20050;-44
2023/04/13 05:41:20;;;;;;;1.75;1.08;;;;;;;3.15;88.00;99139.78;5024870;28;20045;-44
2023/04/13 05:43:48;;;;;;;5.63;1.10;;;;;;;3.15;87.74;99150.72;5008334;28;20059;-43
2023/04/13 05:46:17;;;;;;;8.27;1.02;;;;;;;3.15;87.65;99147.97;5022583;28;20033;-44
2023/04/13 05:48:44;;;;;;;4.15;1.48;;;;;;;3.16;87.69;99149.56;5025609;28;20052;-44
2023/04/13 05:51:11;;;;;;;2.33;0.77;;;;;;;3.17;88.13;99153.91;5025243;28;20042;-44
2023/04/13 05:53:38;;;;;;;6.13;1.48;;;;;;;3.18;87.99;99144.59;5023006;28;20045;-44
2023/04/13 05:56:06;;;;;;;4.68;1.20;;;;;;;3.18;88.07;99148.09;5026313;28;20383;-44
2023/04/13 05:58:36;;;;;;;5.97;1.63;;;;;;;3.20;87.77;99150.50;5027711;28;20515;-44
2023/04/13 06:01:04;;;;;;;3.75;0.93;;;;;;;3.21;87.86;99154.81;5028579;28;20079;-45
2023/04/13 06:03:33;;;;;;;4.63;0.93;;;;;;;3.21;87.98;99147.44;5031943;28;20045;-45
2023/04/13 06:06:03;;;;;;;4.00;0.88;;;;;;;3.24;88.03;99162.34;5034019;28;20450;-46
2023/04/13 06:08:33;;;;;;;3.63;1.60;;;;;;;3.26;88.17;99154.63;5035614;28;20060;-45
2023/04/13 06:11:01;;;;;;;3.28;0.73;;;;;;;3.26;87.89;99169.09;5031905;28;20049;-43
2023/04/13 06:13:31;;;;;;;2.65;1.10;;;;;;;3.29;87.93;99167.63;5042704;28;20044;-44
2023/04/13 06:15:58;;;;;;;4.55;0.98;;;;;;;3.30;87.90;99177.44;5024076;28;20091;-47
2023/04/13 06:18:26;;;;;;;4.57;1.33;;;;;;;3.31;88.26;99170.84;5034538;28;20106;-44
2023/04/13 06:20:53;;;;;;;3.25;1.38;;;;;;;3.32;88.05;99172.41;5035022;28;20510;-44
2023/04/13 06:23:21;;;;;;;5.10;0.90;;;;;;;3.34;88.23;99183.81;5032134;28;20160;-44
2023/04/13 06:25:49;;;;;;;5.55;1.92;;;;;;;3.35;88.13;99188.97;5035990;28;20088;-44
2023/04/13 06:28:16;;;;;;;2.05;1.48;;;;;;;3.36;87.85;99189.78;5026131;28;20563;-44
2023/04/13 06:30:43;;;;;;;3.42;1.10;;;;;;;3.39;88.17;99202.78;5029314;28;20465;-44
2023/04/13 06:33:11;;;;;;;3.65;1.08;;;;;;;3.39;88.35;99202.78;5033618;28;20037;-44
2023/04/13 06:35:39;;;;;;;4.72;2.00;;;;;;;3.41;88.08;99198.59;5027721;28;20045;-45
2023/04/13 06:38:10;;;;;;;7.30;1.33;;;;;;;3.45;88.14;99206.91;5031590;28;20563;-44
2023/04/13 06:40:38;;;;;;;2.80;0.65;;;;;;;3.48;88.27;99217.19;5032439;28;20037;-44
2023/04/13 06:43:05;;;;;;;4.90;1.42;;;;;;;3.51;88.22;99225.53;5032945;28;20594;-44
2023/04/13 06:45:46;;;;;;;7.20;2.00;;;;;;;3.54;88.40;99218.59;5020258;28;20034;-51
2023/04/13 06:48:13;;;;;;;5.90;0.98;;;;;;;3.56;88.23;99219.03;5031628;28;20108;-49
2023/04/13 06:50:40;;;;;;;7.63;0.90;;;;;;;3.60;88.14;99236.41;5013975;28;20095;-45
2023/04/13 06:53:09;;;;;;;3.63;1.10;;;;;;;3.64;87.98;99234.56;5031128;28;20041;-51
2023/04/13 06:55:36;;;;;;;8.35;1.17;;;;;;;3.68;88.19;99235.50;5031474;28;20041;-52
2023/04/13 06:58:03;;;;;;;5.15;0.70;;;;;;;3.72;88.13;99236.44;5031932;28;20049;-48
2023/04/13 07:00:33;;;;;;;6.80;1.20;;;;;;;3.75;88.28;99235.78;5031940;28;20057;-49
2023/04/13 07:03:00;;;;;;;1.63;0.85;;;;;;;3.80;88.22;99251.16;5031097;28;20119;-45
2023/04/13 07:05:29;;;;;;;17.40;1.80;;;;;;;3.84;87.96;99250.16;5013888;28;20041;-45
2023/04/13 07:07:56;;;;;;;4.00;1.05;;;;;;;3.88;87.82;99251.09;5031070;28;20037;-44
2023/04/13 07:10:23;;;;;;;11.63;2.08;;;;;;;3.91;87.71;99247.69;5030985;28;20099;-44
2023/04/13 07:12:50;;;;;;;4.32;0.80;;;;;;;3.95;87.73;99259.56;5030263;28;20502;-45
2023/04/13 07:15:17;;;;;;;4.32;2.40;;;;;;;4.00;87.95;99270.28;5037037;28;20056;-45
2023/04/13 07:17:45;;;;;;;6.03;0.90;;;;;;;4.03;87.98;99266.88;5030989;28;20079;-45
2023/04/13 07:20:13;;;;;;;7.95;3.10;;;;;;;4.08;87.80;99285.84;5011385;28;20054;-44
2023/04/13 07:22:40;;;;;;;6.55;1.63;;;;;;;4.14;87.97;99270.78;5014195;28;20136;-44
2023/04/13 07:25:07;;;;;;;5.68;1.10;;;;;;;4.21;87.84;99281.19;5025406;28;20045;-47
2023/04/13 07:27:34;;;;;;;8.13;1.55;;;;;;;4.25;87.65;99280.19;5028931;28;20056;-44
2023/04/13 07:30:03;;;;;;;6.75;1.20;;;;;;;4.31;87.75;99281.53;5030825;28;20052;-47
2023/04/13 07:32:32;;;;;;;4.30;1.10;;;;;;;4.36;87.42;99279.75;5033078;28;20567;-49
2023/04/13 07:35:01;;;;;;;12.15;1.80;;;;;;;4.43;87.76;99293.69;5030995;28;20148;-48
2023/04/13 07:37:28;;;;;;;4.93;1.10;;;;;;;4.48;87.58;99274.28;5013315;28;20133;-48
2023/04/13 07:39:55;;;;;;;6.78;1.58;;;;;;;4.59;87.39;99280.91;5030976;28;20096;-45
2023/04/13 07:42:24;;;;;;;3.30;1.25;;;;;;;4.69;87.69;99292.22;5030765;28;20470;-45
2023/04/13 07:44:54;;;;;;;2.65;0.90;;;;;;;4.77;87.03;99285.03;5030825;28;20048;-45
2023/04/13 07:47:21;;;;;;;1.95;0.77;;;;;;;4.91;87.25;99293.72;5030256;28;20053;-45
2023/04/13 07:49:49;;;;;;;6.47;1.05;;;;;;;5.13;87.31;99298.75;5031356;28;20048;-46
2023/04/13 07:52:18;;;;;;;4.75;0.80;;;;;;;5.30;87.20;99297.69;5031156;28;20103;-48
2023/04/13 07:54:45;;;;;;;7.68;1.70;;;;;;;5.38;86.64;99297.56;5031452;28;20104;-46
2023/04/13 07:57:13;;;;;;;9.82;1.40;;;;;;;5.40;86.77;99289.78;5030351;28;20407;-46
2023/04/13 07:59:40;;;;;;;2.40;1.20;;;;;;;5.46;86.80;99293.91;5029745;28;20071;-49
2023/04/13 08:02:06;;;;;;;3.88;1.40;;;;;;;5.51;86.69;99301.88;5033169;28;20049;-47
2023/04/13 08:04:37;;;;;;;5.35;1.27;;;;;;;5.59;86.87;99297.41;5030229;28;20068;-50
2023/04/13 08:07:06;;;;;;;3.40;1.25;;;;;;;5.70;86.92;99303.22;5025167;28;20092;-45
2023/04/13 08:09:41;;;;;;;9.15;1.30;;;;;;;5.81;86.59;99304.31;5028463;28;20077;-47
2023/04/13 08:12:10;;;;;;;5.88;1.33;;;;;;;5.89;86.66;99306.97;5029862;28;20164;-46
2023/04/13 08:14:37;;;;;;;3.97;1.10;;;;;;;6.02;86.56;99299.47;5018237;28;20492;-46
2023/04/13 08:17:04;;;;;;;6.38;1.58;;;;;;;6.15;87.15;99298.25;5009304;28;20049;-51
2023/04/13 08:19:32;;;;;;;2.58;0.90;;;;;;;6.28;87.13;99308.03;5012300;28;20515;-48
2023/04/13 08:22:00;;;;;;;5.38;1.48;;;;;;;6.43;87.64;99293.53;5014194;28;20056;-55
2023/04/13 08:24:29;;;;;;;2.53;1.00;;;;;;;6.61;87.48;99305.81;5010265;28;20378;-46
2023/04/13 08:26:58;;;;;;;2.45;0.80;;;;;;;6.81;88.06;99308.63;5011138;28;20495;-48
2023/04/13 08:29:26;;;;;;;7.80;1.63;;;;;;;7.00;88.21;99306.78;5013946;28;21613;-46
2023/04/13 08:31:55;;;;;;;7.57;1.85;;;;;;;7.27;89.02;99302.28;4997068;28;20045;-47
2023/04/13 08:34:22;;;;;;;9.32;2.03;;;;;;;7.57;89.47;99302.59;5012987;28;20038;-50
2023/04/13 08:36:49;;;;;;;5.22;1.17;;;;;;;7.86;90.38;99315.81;5012013;28;20579;-53
2023/04/13 08:39:17;;;;;;;7.47;1.50;;;;;;;8.22;91.73;99303.53;5011301;28;20076;-48
2023/04/13 08:41:47;;;;;;;4.00;1.60;;;;;;;8.75;93.09;99301.78;5010728;28;20060;-52
2023/04/13 08:44:14;;;;;;;7.45;1.58;;;;;;;9.41;93.46;99295.75;5010326;28;20428;-54
2023/04/13 08:46:44;;;;;;;8.70;1.38;;;;;;;10.25;93.30;99313.47;5009209;28;20391;-54
2023/04/13 08:49:12;;;;;;;7.00;1.10;;;;;;;11.12;90.19;99317.47;5011372;28;20065;-54
2023/04/13 08:51:42;;;;;;;8.48;3.17;;;;;;;11.84;86.51;99314.84;5010887;28;20057;-53
2023/04/13 08:54:11;;;;;;;4.82;1.23;;;;;;;12.60;83.06;99332.19;5011385;28;20096;-50
2023/04/13 08:56:41;;;;;;;8.65;1.70;;;;;;;13.01;79.30;99332.66;5011055;28;20042;-54
2023/04/13 08:59:14;;;;;;;9.77;1.42;;;;;;;13.53;76.73;99330.31;5008996;28;20399;-48
2023/04/13 09:01:45;;;;;;;18.95;1.90;;;;;;;14.10;73.95;99342.09;5011436;28;20519;-52
2023/04/13 09:04:16;;;;;;;5.50;1.30;;;;;;;14.47;71.02;99345.16;5009404;28;20042;-52
2023/04/13 09:06:49;;;;;;;7.28;1.50;;;;;;;14.73;68.96;99343.81;5008501;28;20046;-48
2023/04/13 09:09:17;;;;;;;4.50;0.93;;;;;;;15.13;67.64;99349.53;5015991;28;20052;-48
2023/04/13 09:11:45;;;;;;;3.75;1.15;;;;;;;15.39;65.02;99350.09;5016510;28;20554;-53
2023/04/13 09:14:19;;;;;;;8.57;1.40;;;;;;;15.43;63.03;99348.09;5011286;28;20049;-51
2023/04/13 09:16:50;;;;;;;3.15;1.27;;;;;;;15.37;61.81;99358.09;5013963;28;20124;-48
2023/04/13 09:19:28;;;;;;;2.63;1.10;;;;;;;15.38;60.14;99334.59;5012232;28;20462;-54
2023/04/13 09:21:58;;;;;;;6.82;1.58;;;;;;;15.45;58.71;99343.69;5013794;28;20466;-55
2023/04/13 09:24:37;;;;;;;6.85;1.33;;;;;;;15.85;58.10;99350.53;5008236;28;20060;-51
2023/04/13 09:27:04;;;;;;;5.47;1.65;;;;;;;15.99;56.93;99355.94;5017662;28;20057;-48
2023/04/13 09:29:32;;;;;;;3.85;1.25;;;;;;;16.20;56.15;99338.94;5009762;28;20060;-50
2023/04/13 09:32:05;;;;;;;6.80;1.30;;;;;;;16.66;55.65;99337.59;5005390;28;20554;-49
2023/04/13 09:34:32;;;;;;;6.97;1.30;;;;;;;16.74;54.39;99359.44;5013529;28;20045;-47
2023/04/13 09:37:12;;;;;;;4.13;1.33;;;;;;;16.58;53.93;99336.91;5010745;28;20069;-50
2023/04/13 09:39:40;;;;;;;7.07;1.15;;;;;;;16.70;52.10;99343.94;5008189;28;20579;-52
2023/04/13 09:42:11;;;;;;;7.78;1.45;;;;;;;16.66;51.92;99346.78;5014482;28;20045;-53
2023/04/13 09:44:38;;;;;;;4.70;1.55;;;;;;;16.74;51.36;99339.09;5012090;28;20119;-46
2023/04/13 09:47:18;;;;;;;7.63;1.15;;;;;;;16.74;50.70;99323.13;5022456;28;20666;-47
2023/04/13 09:49:45;;;;;;;4.63;1.10;;;;;;;16.44;49.55;99342.66;5023479;28;20466;-46
2023/04/13 09:52:21;;;;;;;5.07;1.20;;;;;;;16.51;50.08;99336.97;5023879;28;20403;-46
2023/04/13 09:54:53;;;;;;;3.85;1.30;;;;;;;16.64;49.43;99335.22;5005727;28;20056;-48
2023/04/13 09:57:28;;;;;;;3.50;1.02;;;;;;;16.79;49.06;99347.00;5020405;28;20047;-48
2023/04/13 10:00:10;;;;;;;6.38;1.10;;;;;;;16.64;48.28;99351.19;5023634;28;20041;-50
2023/04/13 10:02:40;;;;;;;5.22;1.75;;;;;;;16.57;47.93;99334.53;5039862;28;20470;-47
2023/04/13 10:05:08;;;;;;;4.28;1.17;;;;;;;16.55;48.03;99334.94;5043812;28;20129;-47
2023/04/13 10:07:36;;;;;;;6.00;1.17;;;;;;;16.74;47.69;99337.09;5043055;28;20045;-54
2023/04/13 10:10:05;;;;;;;4.25;1.40;;;;;;;16.81;46.87;99333.41;5040169;28;20039;-49
2023/04/13 10:12:35;;;;;;;9.98;1.05;;;;;;;16.59;46.40;99352.47;5042796;28;20143;-51
2023/04/13 10:15:13;;;;;;;4.30;1.40;;;;;;;16.35;46.91;99328.41;5025095;28;20232;-46
2023/04/13 10:17:56;;;;;;;5.32;1.45;;;;;;;16.51;47.03;99336.19;5043006;28;20045;-49
2023/04/13 10:20:23;;;;;;;4.80;1.13;;;;;;;16.49;45.98;99333.03;5041770;28;20052;-47
2023/04/13 10:22:53;;;;;;;4.53;1.20;;;;;;;15.81;46.61;99321.84;5042324;28;20364;-46
2023/04/13 10:25:21;;;;;;;7.68;1.13;;;;;;;15.65;46.63;99324.41;5032307;28;20840;-47
2023/04/13 10:27:59;;;;;;;6.60;1.42;;;;;;;15.74;46.73;99327.50;5031799;28;20053;-48
2023/04/13 10:30:27;;;;;;;3.22;1.20;;;;;;;15.64;46.47;99339.56;5013864;28;20056;-49
2023/04/13 10:33:08;;;;;;;6.90;1.10;;;;;;;15.65;46.36;99341.13;5029987;28;20048;-53
2023/04/13 10:35:36;;;;;;;7.45;0.95;;;;;;;15.29;45.94;99337.06;5032579;28;21030;-48
2023/04/13 10:38:08;;;;;;;2.95;1.02;;;;;;;14.81;46.79;99348.16;5035979;28;20144;-49
2023/04/13 10:40:45;;;;;;;4.80;0.93;;;;;;;14.82;47.13;99333.03;5037037;28;20059;-50
2023/04/13 10:43:26;;;;;;;6.15;1.15;;;;;;;14.72;46.88;99345.03;5045274;28;20128;-46
2023/04/13 10:46:10;;;;;;;5.85;0.73;;;;;;;14.21;47.44;99335.28;5044938;28;20481;-47
2023/04/13 10:48:52;;;;;;;9.95;1.88;;;;;;;14.36;47.22;99352.75;5044212;28;20048;-45
2023/04/13 10:51:19;;;;;;;5.32;1.77;;;;;;;13.94;47.60;99346.13;5026054;28;20136;-46
2023/04/13 10:53:46;;;;;;;4.40;0.85;;;;;;;13.34;48.87;99350.97;5044779;28;20084;-45
2023/04/13 10:56:18;;;;;;;3.47;1.20;;;;;;;13.29;49.59;99351.38;5025349;28;20546;-47
2023/04/13 10:58:52;;;;;;;4.23;1.00;;;;;;;13.38;49.58;99341.44;5026303;28;20048;-50
2023/04/13 11:01:19;;;;;;;6.88;1.30;;;;;;;13.06;50.12;99345.34;5025771;28;20065;-46
2023/04/13 11:03:47;;;;;;;5.78;1.05;;;;;;;12.92;50.74;99332.22;5026588;28;20123;-46
2023/04/13 11:06:38;;;;;;;6.82;1.50;;;;;;;12.89;51.15;99338.59;5043415;28;20053;-52
2023/04/13 11:09:10;;;;;;;5.43;1.13;;;;;;;12.66;51.61;99338.13;5026520;28;20045;-49
2023/04/13 11:11:40;;;;;;;;;;;;;;;12.60;51.83;99332.19;5041444;28;20083;-49
2023/04/13 11:14:08;;;;;;;8.18;1.95;;;;;;;12.49;52.33;99336.94;5042807;28;21330;-47
2023/04/13 11:16:44;;;;;;;6.88;1.15;;;;;;;12.41;52.49;99335.31;5022081;28;20118;-48
2023/04/13 11:19:13;;;;;;;3.90;1.00;;;;;;;12.38;52.80;99338.88;5038308;28;20048;-45
2023/04/13 11:21:43;;;;;;;3.97;1.33;;;;;;;12.32;52.54;99340.41;5038211;28;20041;-47
2023/04/13 11:24:12;;;;;;;8.35;1.90;;;;;;;12.31;52.63;99338.81;5041822;28;20467;-49
2023/04/13 11:26:39;;;;;;;5.95;1.13;;;;;;;12.29;52.97;99341.19;5024838;28;20498;-46
2023/04/13 11:29:17;;;;;;;5.57;1.60;;;;;;;12.23;52.97;99347.53;5043211;28;20297;-47
2023/04/13 11:31:44;;;;;;;6.93;1.23;;;;;;;12.10;53.20;99349.81;5042716;28;20102;-50
2023/04/13 11:34:11;;;;;;;11.43;2.47;;;;;;;12.04;53.20;99334.75;5043881;28;20368;-45
2023/04/13 11:36:39;;;;;;;4.25;1.50;;;;;;;12.08;53.96;99353.00;5042662;28;20060;-48
2023/04/13 11:39:08;;;;;;;8.85;1.85;;;;;;;12.15;53.41;99349.50;5043579;28;20494;-50
2023/04/13 11:41:40;;;;;;;5.30;2.17;;;;;;;12.10;53.67;99344.28;5041693;28;20498;-50
2023/04/13 11:44:10;;;;;;;5.05;0.88;;;;;;;12.24;54.11;99347.13;5043054;28;20570;-45
2023/04/13 11:46:38;;;;;;;5.20;1.27;;;;;;;12.33;53.93;99350.34;5042818;28;20057;-46
2023/04/13 11:49:08;;;;;;;3.70;1.38;;;;;;;12.36;54.02;99349.56;5041119;28;20115;-49
2023/04/13 11:51:37;;;;;;;;;;;;;;;12.31;53.15;99358.25;5043222;28;20052;-55